createdAt,value
2018-07-24T00:00:55.922Z,99.99
2018-07-24T00:01:56.101Z,99.99
2018-07-24T00:02:56.308Z,99.99
2018-07-24T00:03:56.470Z,99.99
2018-07-24T00:04:56.656Z,99.99
2018-07-24T00:05:56.836Z,99.99
2018-07-24T00:06:57.009Z,99.99
2018-07-24T00:07:57.193Z,99.99
2018-07-24T00:08:57.381Z,99.99
2018-07-24T00:09:57.567Z,99.99
2018-07-24T00:10:57.785Z,99.99
2018-07-24T00:11:57.931Z,99.99
2018-07-24T00:12:58.125Z,99.99
2018-07-24T00:13:58.319Z,99.99
2018-07-24T00:14:58.503Z,99.99
2018-07-24T00:15:58.676Z,99.99
2018-07-24T00:16:58.870Z,99.99
2018-07-24T00:17:59.068Z,99.99
2018-07-24T00:18:59.254Z,99.99
2018-07-24T00:19:59.441Z,99.99
2018-07-24T00:20:59.628Z,99.99
2018-07-24T00:21:59.795Z,99.99
2018-07-24T00:22:59.982Z,99.99
2018-07-24T00:24:00.156Z,99.99
2018-07-24T00:25:00.379Z,99.99
2018-07-24T00:26:00.538Z,99.99
2018-07-24T00:27:00.726Z,99.99
2018-07-24T00:28:00.913Z,99.99
2018-07-24T00:29:01.100Z,99.99
2018-07-24T00:30:01.285Z,99.99
2018-07-24T00:31:01.479Z,99.99
2018-07-24T00:32:01.680Z,99.99
2018-07-24T00:33:01.858Z,99.99
2018-07-24T00:34:02.051Z,99.99
2018-07-24T00:35:02.241Z,99.99
2018-07-24T00:36:02.426Z,99.99
2018-07-24T00:37:02.613Z,99.99
2018-07-24T00:38:02.797Z,99.99
2018-07-24T00:39:02.984Z,99.99
2018-07-24T00:40:03.176Z,99.99
2018-07-24T00:41:03.373Z,99.99
2018-07-24T00:42:03.525Z,99.99
2018-07-24T00:43:03.713Z,99.99
2018-07-24T00:44:03.898Z,99.99
2018-07-24T00:45:04.086Z,99.99
2018-07-24T00:46:04.278Z,99.99
2018-07-24T00:47:04.465Z,99.99
2018-07-24T00:48:04.647Z,99.99
2018-07-24T00:49:04.813Z,99.99
2018-07-24T00:50:05.020Z,99.99
2018-07-24T00:51:05.227Z,99.99
2018-07-24T00:52:05.378Z,99.99
2018-07-24T00:53:05.573Z,99.99
2018-07-24T00:54:05.788Z,99.99
2018-07-24T00:55:05.940Z,99.99
2018-07-24T00:56:06.113Z,99.99
2018-07-24T00:57:06.293Z,99.99
2018-07-24T00:58:06.481Z,99.99
2018-07-24T00:59:06.672Z,99.99
2018-07-24T01:00:06.859Z,99.99
2018-07-24T01:01:07.038Z,99.99
2018-07-24T01:02:07.249Z,99.99
2018-07-24T01:03:07.406Z,99.99
2018-07-24T01:04:07.592Z,99.99
2018-07-24T01:05:07.776Z,99.99
2018-07-24T01:06:07.960Z,99.99
2018-07-24T01:07:08.150Z,99.99
2018-07-24T01:08:08.332Z,99.99
2018-07-24T01:09:08.516Z,99.99
2018-07-24T01:10:08.696Z,99.99
2018-07-24T01:11:08.904Z,99.99
2018-07-24T01:12:09.084Z,99.99
2018-07-24T01:13:09.281Z,99.99
2018-07-24T01:14:09.467Z,99.99
2018-07-24T01:15:09.651Z,99.99
2018-07-24T01:16:09.830Z,99.99
2018-07-24T01:17:10.011Z,99.99
2018-07-24T01:18:10.203Z,99.99
2018-07-24T01:19:10.388Z,99.99
2018-07-24T01:20:10.574Z,99.99
2018-07-24T01:21:10.786Z,99.99
2018-07-24T01:22:10.996Z,99.99
2018-07-24T01:23:11.179Z,99.99
2018-07-24T01:24:11.362Z,99.99
2018-07-24T01:25:11.549Z,99.99
2018-07-24T01:26:11.725Z,99.99
2018-07-24T01:27:11.933Z,99.99
2018-07-24T01:28:12.107Z,99.99
2018-07-24T01:29:12.294Z,99.99
2018-07-24T01:30:12.478Z,99.99
2018-07-24T01:31:12.665Z,99.99
2018-07-24T01:32:12.854Z,99.99
2018-07-24T01:33:13.036Z,99.99
2018-07-24T01:34:13.224Z,99.99
2018-07-24T01:35:13.418Z,99.99
2018-07-24T01:36:13.616Z,99.99
2018-07-24T01:37:13.775Z,99.99
2018-07-24T01:38:13.962Z,99.99
2018-07-24T01:39:14.147Z,99.99
2018-07-24T01:40:14.341Z,99.99
2018-07-24T01:41:14.531Z,99.99
2018-07-24T01:42:14.732Z,99.99
2018-07-24T01:43:14.875Z,99.99
2018-07-24T01:44:15.062Z,99.99
2018-07-24T01:45:15.249Z,99.99
2018-07-24T01:46:15.437Z,99.99
2018-07-24T01:47:15.626Z,99.99
2018-07-24T01:48:15.809Z,99.99
2018-07-24T01:49:16.011Z,99.99
2018-07-24T01:50:16.188Z,99.99
2018-07-24T01:51:16.386Z,99.99
2018-07-24T01:52:16.550Z,99.99
2018-07-24T01:53:16.736Z,99.99
2018-07-24T01:54:16.921Z,99.99
2018-07-24T01:55:17.108Z,99.99
2018-07-24T01:56:17.295Z,99.99
2018-07-24T01:57:17.477Z,99.99
2018-07-24T01:58:17.712Z,99.99
2018-07-24T01:59:17.919Z,99.99
2018-07-24T02:00:18.095Z,99.99
2018-07-24T02:01:18.283Z,99.99
2018-07-24T02:02:18.469Z,99.99
2018-07-24T02:03:18.649Z,99.99
2018-07-24T02:04:18.835Z,99.99
2018-07-24T02:05:19.019Z,99.99
2018-07-24T02:06:19.222Z,99.99
2018-07-24T02:07:19.385Z,99.99
2018-07-24T02:08:19.573Z,99.99
2018-07-24T02:09:19.753Z,99.99
2018-07-24T02:10:19.938Z,99.99
2018-07-24T02:11:20.126Z,99.99
2018-07-24T02:12:20.309Z,99.99
2018-07-24T02:13:20.491Z,99.99
2018-07-24T02:14:20.687Z,99.99
2018-07-24T02:15:20.849Z,99.99
2018-07-24T02:16:21.040Z,99.99
2018-07-24T02:17:21.225Z,99.99
2018-07-24T02:18:21.408Z,99.99
2018-07-24T02:19:21.598Z,99.99
2018-07-24T02:20:21.800Z,99.99
2018-07-24T02:21:21.960Z,99.99
2018-07-24T02:22:22.143Z,99.99
2018-07-24T02:23:22.341Z,99.99
2018-07-24T02:24:22.518Z,99.99
2018-07-24T02:25:22.701Z,99.99
2018-07-24T02:26:22.878Z,99.99
2018-07-24T02:27:23.075Z,99.99
2018-07-24T02:28:23.259Z,99.99
2018-07-24T02:29:23.443Z,99.99
2018-07-24T02:30:23.632Z,99.99
2018-07-24T02:31:23.818Z,99.99
2018-07-24T02:32:24.020Z,99.99
2018-07-24T02:33:24.189Z,99.99
2018-07-24T02:34:24.372Z,99.99
2018-07-24T02:35:24.559Z,99.99
2018-07-24T02:36:24.746Z,99.99
2018-07-24T02:37:24.940Z,99.99
2018-07-24T02:38:25.116Z,99.99
2018-07-24T02:39:25.315Z,99.99
2018-07-24T02:40:25.500Z,99.99
2018-07-24T02:41:25.683Z,99.99
2018-07-24T02:42:25.871Z,99.99
2018-07-24T02:43:26.060Z,99.99
2018-07-24T02:44:26.247Z,99.99
2018-07-24T02:45:26.444Z,99.99
2018-07-24T02:46:26.609Z,99.99
2018-07-24T02:47:26.790Z,99.99
2018-07-24T02:48:26.979Z,99.99
2018-07-24T02:49:27.168Z,99.99
2018-07-24T02:50:27.350Z,99.99
2018-07-24T02:51:27.569Z,99.99
2018-07-24T02:52:27.726Z,99.99
2018-07-24T02:53:27.915Z,99.99
2018-07-24T02:54:28.099Z,99.99
2018-07-24T02:55:28.288Z,99.99
2018-07-24T02:56:28.473Z,99.99
2018-07-24T02:57:28.651Z,99.99
2018-07-24T02:58:28.852Z,99.99
2018-07-24T02:59:29.035Z,99.99
2018-07-24T03:00:29.220Z,99.99
2018-07-24T03:01:29.391Z,99.99
2018-07-24T03:02:29.567Z,99.99
2018-07-24T03:03:29.767Z,99.99
2018-07-24T03:04:29.960Z,99.99
2018-07-24T03:05:30.133Z,99.99
2018-07-24T03:06:30.333Z,99.99
2018-07-24T03:07:30.542Z,99.99
2018-07-24T03:08:30.724Z,99.99
2018-07-24T03:09:30.909Z,99.99
2018-07-24T03:10:31.122Z,99.99
2018-07-24T03:11:31.286Z,99.99
2018-07-24T03:12:31.481Z,99.99
2018-07-24T03:13:31.664Z,99.99
2018-07-24T03:14:31.837Z,99.99
2018-07-24T03:15:32.015Z,99.99
2018-07-24T03:16:32.220Z,99.99
2018-07-24T03:17:32.382Z,99.99
2018-07-24T03:18:32.567Z,99.99
2018-07-24T03:19:32.757Z,99.99
2018-07-24T03:20:32.935Z,99.99
2018-07-24T03:21:33.120Z,99.99
2018-07-24T03:22:33.308Z,99.99
2018-07-24T03:23:33.501Z,99.99
2018-07-24T03:24:33.666Z,99.99
2018-07-24T03:25:33.857Z,99.99
2018-07-24T03:26:34.047Z,99.99
2018-07-24T03:27:34.233Z,99.99
2018-07-24T03:28:34.445Z,99.99
2018-07-24T03:29:34.637Z,99.99
2018-07-24T03:30:34.823Z,99.99
2018-07-24T03:31:35.023Z,99.99
2018-07-24T03:32:35.181Z,99.99
2018-07-24T03:33:35.363Z,99.99
2018-07-24T03:34:35.548Z,99.99
2018-07-24T03:35:35.734Z,99.99
2018-07-24T03:36:35.919Z,99.99
2018-07-24T03:37:36.107Z,99.99
2018-07-24T03:38:36.294Z,99.99
2018-07-24T03:39:36.505Z,99.99
2018-07-24T03:40:36.661Z,99.99
2018-07-24T03:41:36.858Z,99.99
2018-07-24T03:42:37.019Z,99.99
2018-07-24T03:43:37.203Z,99.99
2018-07-24T03:44:37.390Z,99.99
2018-07-24T03:45:37.581Z,99.99
2018-07-24T03:46:37.778Z,99.99
2018-07-24T03:47:37.942Z,99.99
2018-07-24T03:48:38.124Z,99.99
2018-07-24T03:51:21.017Z,99.99
2018-07-24T03:52:21.204Z,99.99
2018-07-24T03:53:21.924Z,99.99
2018-07-24T03:54:21.569Z,99.99
2018-07-24T03:55:21.756Z,99.99
2018-07-24T03:56:21.938Z,99.99
2018-07-24T03:57:22.127Z,99.99
2018-07-24T03:58:22.310Z,99.99
2018-07-24T03:59:22.497Z,99.99
2018-07-24T04:00:22.682Z,99.99
2018-07-24T04:01:22.868Z,99.99
2018-07-24T04:02:23.068Z,99.99
2018-07-24T04:03:23.238Z,99.99
2018-07-24T04:04:23.425Z,99.99
2018-07-24T04:05:23.615Z,99.99
2018-07-24T04:06:23.789Z,99.99
2018-07-24T04:07:23.968Z,99.99
2018-07-24T04:08:24.155Z,99.99
2018-07-24T04:09:24.344Z,99.99
2018-07-24T04:10:24.538Z,99.99
2018-07-24T04:11:24.721Z,99.99
2018-07-24T04:12:24.904Z,99.99
2018-07-24T04:13:25.091Z,99.99
2018-07-24T04:14:25.277Z,99.99
2018-07-24T04:15:25.464Z,99.99
2018-07-24T04:16:25.653Z,99.99
2018-07-24T04:17:25.839Z,99.99
2018-07-24T04:18:26.024Z,99.99
2018-07-24T04:19:26.212Z,99.99
2018-07-24T04:20:26.387Z,99.99
2018-07-24T04:21:26.583Z,99.99
2018-07-24T04:22:26.771Z,99.99
2018-07-24T04:23:26.963Z,99.99
2018-07-24T04:24:27.148Z,99.99
2018-07-24T04:25:27.331Z,99.99
2018-07-24T04:26:27.510Z,99.99
2018-07-24T04:27:27.701Z,99.99
2018-07-24T04:28:27.887Z,99.99
2018-07-24T04:29:28.073Z,99.99
2018-07-24T04:30:28.261Z,99.99
2018-07-24T04:31:28.450Z,99.99
2018-07-24T04:32:28.635Z,99.99
2018-07-24T04:33:28.822Z,99.99
2018-07-24T04:34:29.007Z,99.99
2018-07-24T04:35:29.196Z,99.99
2018-07-24T04:36:29.381Z,99.99
2018-07-24T04:37:29.567Z,99.99
2018-07-24T04:38:29.755Z,99.99
2018-07-24T04:39:29.941Z,99.99
2018-07-24T04:40:30.127Z,99.99
2018-07-24T04:41:30.311Z,99.99
2018-07-24T04:42:30.499Z,99.99
2018-07-24T04:43:30.687Z,99.99
2018-07-24T04:44:30.872Z,99.99
2018-07-24T04:45:31.054Z,99.99
2018-07-24T04:46:31.245Z,99.99
2018-07-24T04:47:31.431Z,99.99
2018-07-24T04:48:31.679Z,99.99
2018-07-24T04:49:31.807Z,99.99
2018-07-24T04:50:31.992Z,99.99
2018-07-24T04:51:32.174Z,99.99
2018-07-24T04:52:32.358Z,99.99
2018-07-24T04:53:32.545Z,99.99
2018-07-24T04:54:32.731Z,99.99
2018-07-24T04:55:32.918Z,99.99
2018-07-24T04:56:33.104Z,99.99
2018-07-24T04:57:33.296Z,99.99
2018-07-24T04:58:33.479Z,99.99
2018-07-24T04:59:33.665Z,99.99
2018-07-24T05:00:33.853Z,99.99
2018-07-24T05:01:34.042Z,99.99
2018-07-24T05:02:34.283Z,99.99
2018-07-24T05:03:34.416Z,99.69
2018-07-24T05:04:34.609Z,98.58
2018-07-24T05:05:34.800Z,98.73
2018-07-24T05:06:34.986Z,96.89
2018-07-24T05:07:35.185Z,95.50
2018-07-24T05:08:35.367Z,94.48
2018-07-24T05:09:35.595Z,94.04
2018-07-24T05:10:35.840Z,92.02
2018-07-24T05:11:35.952Z,90.91
2018-07-24T05:12:36.136Z,88.59
2018-07-24T05:13:36.328Z,88.59
2018-07-24T05:14:36.518Z,88.73
2018-07-24T05:15:36.707Z,87.76
2018-07-24T05:16:36.923Z,87.33
2018-07-24T05:17:37.100Z,87.91
2018-07-24T05:18:37.290Z,88.25
2018-07-24T05:19:37.483Z,88.15
2018-07-24T05:20:37.677Z,88.35
2018-07-24T05:21:37.871Z,89.61
2018-07-24T05:22:38.067Z,88.73
2018-07-24T05:23:38.284Z,88.87
2018-07-24T05:24:38.452Z,88.20
2018-07-24T05:25:38.653Z,86.31
2018-07-24T05:26:38.854Z,86.74
2018-07-24T05:27:39.030Z,85.44
2018-07-24T05:28:39.224Z,85.73
2018-07-24T05:29:39.420Z,84.80
2018-07-24T05:30:39.611Z,85.29
2018-07-24T05:31:39.811Z,84.61
2018-07-24T05:32:40.010Z,83.98
2018-07-24T05:33:40.207Z,82.43
2018-07-24T05:34:40.399Z,83.49
2018-07-24T05:35:40.601Z,82.81
2018-07-24T05:36:40.803Z,82.91
2018-07-24T05:37:40.992Z,82.62
2018-07-24T05:38:41.218Z,83.20
2018-07-24T05:39:41.386Z,83.45
2018-07-24T05:40:41.582Z,83.51
2018-07-24T05:41:41.784Z,84.90
2018-07-24T05:42:41.981Z,84.52
2018-07-24T05:43:42.180Z,83.59
2018-07-24T05:44:42.377Z,83.40
2018-07-24T05:45:42.577Z,82.66
2018-07-24T05:46:42.783Z,82.37
2018-07-24T05:47:42.976Z,83.48
2018-07-24T05:48:43.249Z,81.15
2018-07-24T05:49:43.372Z,80.71
2018-07-24T05:50:43.569Z,79.88
2018-07-24T05:51:43.772Z,80.65
2018-07-24T05:52:43.972Z,78.71
2018-07-24T05:53:44.175Z,78.66
2018-07-24T05:54:44.374Z,78.46
2018-07-24T05:55:44.567Z,77.39
2018-07-24T05:56:44.763Z,77.94
2018-07-24T05:57:44.964Z,78.52
2018-07-24T05:58:45.163Z,79.06
2018-07-24T05:59:45.365Z,78.81
2018-07-24T06:00:45.565Z,78.38
2018-07-24T06:01:45.775Z,78.38
2018-07-24T06:02:45.966Z,78.38
2018-07-24T06:03:46.167Z,78.38
2018-07-24T06:04:46.367Z,78.61
2018-07-24T06:05:46.570Z,78.29
2018-07-24T06:06:46.764Z,78.58
2018-07-24T06:07:46.973Z,77.94
2018-07-24T06:08:48.039Z,77.42
2018-07-24T06:09:47.363Z,78.23
2018-07-24T06:10:47.567Z,77.88
2018-07-24T06:11:47.766Z,76.00
2018-07-24T06:12:47.966Z,77.06
2018-07-24T06:13:48.173Z,77.26
2018-07-24T06:14:48.371Z,77.70
2018-07-24T06:15:48.579Z,78.54
2018-07-24T06:16:48.822Z,79.90
2018-07-24T06:17:48.978Z,78.48
2018-07-24T06:18:49.181Z,77.55
2018-07-24T06:19:49.387Z,78.46
2018-07-24T06:20:49.579Z,77.04
2018-07-24T06:21:49.843Z,75.49
2018-07-24T06:22:49.980Z,75.88
2018-07-24T06:23:50.176Z,73.78
2018-07-24T06:24:50.387Z,73.82
2018-07-24T06:25:50.587Z,73.72
2018-07-24T06:26:50.788Z,73.52
2018-07-24T06:27:50.986Z,74.27
2018-07-24T06:28:51.191Z,74.17
2018-07-24T06:29:51.395Z,73.52
2018-07-24T06:30:51.597Z,72.85
2018-07-24T06:31:51.796Z,72.85
2018-07-24T06:32:51.994Z,72.17
2018-07-24T06:33:52.199Z,71.91
2018-07-24T06:34:52.416Z,71.97
2018-07-24T06:35:52.604Z,73.49
2018-07-24T06:36:52.804Z,73.49
2018-07-24T06:37:53.007Z,73.58
2018-07-24T06:38:53.208Z,72.81
2018-07-24T06:39:53.412Z,72.91
2018-07-24T06:40:53.612Z,73.10
2018-07-24T06:41:53.814Z,72.81
2018-07-24T06:42:54.017Z,73.68
2018-07-24T06:43:54.208Z,74.27
2018-07-24T06:44:54.423Z,72.81
2018-07-24T06:45:54.620Z,73.00
2018-07-24T06:46:54.812Z,73.10
2018-07-24T06:47:55.017Z,75.24
2018-07-24T06:48:55.216Z,74.37
2018-07-24T06:49:55.418Z,73.58
2018-07-24T06:50:55.622Z,73.62
2018-07-24T06:51:55.865Z,71.97
2018-07-24T06:52:56.019Z,71.42
2018-07-24T06:53:56.207Z,71.78
2018-07-24T06:54:57.019Z,71.91
2018-07-24T06:55:56.558Z,72.11
2018-07-24T06:56:56.750Z,72.49
2018-07-24T06:57:56.950Z,71.85
2018-07-24T06:58:57.157Z,70.39
2018-07-24T06:59:57.359Z,70.29
2018-07-24T07:00:57.565Z,71.10
2018-07-24T07:01:57.784Z,71.78
2018-07-24T07:02:57.964Z,72.03
2018-07-24T07:03:58.165Z,72.94
2018-07-24T07:04:58.388Z,71.58
2018-07-24T07:05:58.553Z,72.36
2018-07-24T07:06:58.753Z,72.94
2018-07-24T07:07:58.954Z,72.81
2018-07-24T07:08:59.159Z,74.39
2018-07-24T07:09:59.359Z,74.87
2018-07-24T07:10:59.554Z,75.45
2018-07-24T07:11:59.741Z,75.42
2018-07-24T07:12:59.983Z,76.72
2018-07-24T07:14:00.159Z,75.10
2018-07-24T07:15:00.364Z,75.24
2018-07-24T07:16:00.561Z,74.79
2018-07-24T07:17:00.767Z,73.20
2018-07-24T07:18:00.966Z,73.72
2018-07-24T07:19:01.164Z,73.10
2018-07-24T07:20:01.369Z,74.43
2018-07-24T07:21:01.565Z,75.45
2018-07-24T07:22:01.772Z,75.81
2018-07-24T07:23:01.967Z,76.91
2018-07-24T07:24:02.167Z,75.04
2018-07-24T07:25:02.451Z,74.34
2018-07-24T07:26:02.605Z,71.56
2018-07-24T07:27:02.769Z,72.01
2018-07-24T07:28:02.974Z,72.45
2018-07-24T07:29:03.250Z,74.05
2018-07-24T07:30:03.379Z,72.11
2018-07-24T07:31:03.582Z,71.01
2018-07-24T07:32:03.786Z,71.50
2018-07-24T07:33:03.987Z,69.58
2018-07-24T07:34:04.190Z,70.56
2018-07-24T07:35:04.387Z,68.84
2018-07-24T07:36:04.587Z,69.00
2018-07-24T07:37:04.781Z,69.48
2018-07-24T07:38:04.985Z,69.87
2018-07-24T07:39:05.232Z,69.75
2018-07-24T07:40:05.382Z,67.74
2018-07-24T07:41:05.583Z,66.34
2018-07-24T07:42:05.780Z,67.18
2018-07-24T07:43:05.988Z,67.60
2018-07-24T07:44:06.201Z,66.83
2018-07-24T07:45:06.394Z,66.53
2018-07-24T07:46:06.591Z,67.02
2018-07-24T07:47:06.795Z,68.13
2018-07-24T07:48:06.994Z,65.69
2018-07-24T07:49:07.201Z,65.01
2018-07-24T07:50:07.403Z,65.43
2018-07-24T07:51:07.605Z,65.46
2018-07-24T07:52:07.808Z,65.33
2018-07-24T07:53:08.014Z,65.95
2018-07-24T07:54:08.216Z,67.96
2018-07-24T07:55:08.417Z,68.26
2018-07-24T07:56:08.617Z,68.58
2018-07-24T07:57:08.822Z,67.12
2018-07-24T07:58:09.022Z,67.93
2018-07-24T07:59:09.226Z,65.69
2018-07-24T08:00:09.419Z,67.08
2018-07-24T08:01:09.628Z,67.86
2018-07-24T08:02:09.827Z,67.99
2018-07-24T08:03:10.035Z,67.96
2018-07-24T08:04:10.293Z,67.90
2018-07-24T08:05:10.436Z,67.41
2018-07-24T08:06:10.630Z,66.63
2018-07-24T08:07:10.827Z,66.47
2018-07-24T08:08:11.025Z,66.86
2018-07-24T08:09:11.220Z,66.24
2018-07-24T08:10:11.418Z,66.27
2018-07-24T08:11:11.607Z,66.44
2018-07-24T08:12:11.857Z,66.83
2018-07-24T08:13:12.012Z,67.22
2018-07-24T08:14:12.224Z,68.32
2018-07-24T08:15:12.413Z,67.67
2018-07-24T08:16:12.621Z,66.02
2018-07-24T08:17:12.825Z,66.63
2018-07-24T08:18:13.013Z,64.68
2018-07-24T08:19:13.222Z,65.53
2018-07-24T08:20:13.441Z,66.02
2018-07-24T08:21:13.636Z,65.17
2018-07-24T08:22:13.894Z,64.58
2018-07-24T08:23:14.039Z,65.17
2018-07-24T08:24:14.247Z,65.46
2018-07-24T08:25:14.450Z,64.90
2018-07-24T08:26:14.652Z,65.00
2018-07-24T08:27:14.853Z,64.45
2018-07-24T08:28:15.083Z,63.51
2018-07-24T08:29:15.259Z,62.53
2018-07-24T08:30:15.453Z,63.05
2018-07-24T08:31:15.652Z,61.77
2018-07-24T08:32:15.847Z,61.87
2018-07-24T08:33:16.052Z,61.09
2018-07-24T08:34:16.252Z,60.70
2018-07-24T08:35:16.452Z,62.46
2018-07-24T08:36:16.660Z,60.89
2018-07-24T08:37:16.854Z,61.58
2018-07-24T08:38:17.058Z,59.82
2018-07-24T08:39:17.263Z,61.87
2018-07-24T08:40:17.458Z,60.60
2018-07-24T08:41:17.658Z,61.90
2018-07-24T08:42:17.850Z,60.31
2018-07-24T08:43:18.049Z,60.50
2018-07-24T08:44:18.251Z,59.59
2018-07-24T08:45:18.453Z,60.28
2018-07-24T08:46:18.649Z,61.43
2018-07-24T08:47:18.844Z,61.40
2018-07-24T08:48:19.081Z,63.38
2018-07-24T08:49:19.253Z,63.38
2018-07-24T08:50:19.449Z,61.74
2018-07-24T08:51:19.650Z,60.50
2018-07-24T08:52:19.854Z,60.50
2018-07-24T08:53:20.262Z,62.04
2018-07-24T08:54:20.450Z,61.45
2018-07-24T08:55:20.741Z,61.82
2018-07-24T08:56:20.650Z,61.82
2018-07-24T08:57:20.851Z,62.70
2018-07-24T08:58:21.050Z,61.00
2018-07-24T08:59:21.246Z,61.82
2018-07-24T09:00:21.443Z,62.21
2018-07-24T09:01:21.640Z,60.06
2018-07-24T09:02:21.864Z,59.93
2018-07-24T09:03:22.121Z,59.83
2018-07-24T09:04:22.260Z,61.30
2018-07-24T09:05:22.461Z,58.37
2018-07-24T09:06:22.659Z,55.80
2018-07-24T09:07:22.861Z,56.77
2018-07-24T09:08:23.065Z,57.75
2018-07-24T09:09:23.265Z,56.20
2018-07-24T09:10:23.464Z,57.20
2018-07-24T09:11:23.656Z,58.44
2018-07-24T09:12:23.863Z,58.63
2018-07-24T09:13:24.063Z,60.55
2018-07-24T09:14:24.268Z,61.53
2018-07-24T09:15:24.482Z,62.41
2018-07-24T09:16:24.667Z,62.02
2018-07-24T09:17:24.864Z,61.17
2018-07-24T09:18:25.073Z,60.42
2018-07-24T09:19:25.289Z,60.06
2018-07-24T09:20:25.533Z,60.28
2018-07-24T09:21:25.734Z,59.14
2018-07-24T09:22:25.933Z,58.75
2018-07-24T09:23:26.135Z,58.78
2018-07-24T09:24:26.336Z,57.70
2018-07-24T09:25:26.536Z,56.13
2018-07-24T09:26:26.737Z,56.01
2018-07-24T09:27:26.953Z,57.48
2018-07-24T09:28:27.144Z,58.55
2018-07-24T09:29:27.348Z,59.56
2018-07-24T09:30:27.546Z,57.99
2018-07-24T09:31:27.747Z,57.43
2018-07-24T09:32:27.949Z,57.14
2018-07-24T09:33:28.150Z,57.18
2018-07-24T09:34:28.350Z,57.70
2018-07-24T09:35:28.536Z,57.38
2018-07-24T09:36:28.734Z,56.99
2018-07-24T09:37:28.929Z,58.06
2018-07-24T09:38:29.119Z,57.87
2018-07-24T09:39:29.315Z,57.64
2018-07-24T09:40:29.523Z,58.86
2018-07-24T09:41:29.708Z,59.80
2018-07-24T09:42:29.907Z,60.26
2018-07-24T09:43:30.100Z,61.53
2018-07-24T09:44:30.304Z,61.30
2018-07-24T09:45:30.498Z,61.33
2018-07-24T09:46:30.698Z,60.06
2018-07-24T09:47:30.901Z,59.04
2018-07-24T09:48:31.091Z,59.43
2018-07-24T09:49:31.292Z,57.57
2018-07-24T09:50:31.501Z,57.54
2018-07-24T09:51:31.689Z,58.16
2018-07-24T09:52:31.889Z,57.57
2018-07-24T09:53:32.082Z,57.67
2018-07-24T09:54:32.284Z,59.33
2018-07-24T09:55:32.484Z,58.26
2018-07-24T09:56:32.729Z,57.67
2018-07-24T09:57:32.881Z,56.70
2018-07-24T09:58:33.079Z,58.28
2018-07-24T09:59:33.275Z,57.01
2018-07-24T10:00:33.475Z,56.60
2018-07-24T10:01:33.669Z,57.64
2018-07-24T10:02:33.871Z,57.71
2018-07-24T10:03:34.065Z,57.81
2018-07-24T10:04:34.263Z,58.27
2018-07-24T10:05:34.462Z,59.31
2018-07-24T10:06:34.662Z,59.31
2018-07-24T10:07:34.859Z,59.41
2018-07-24T10:08:35.047Z,58.95
2018-07-24T10:09:35.273Z,58.66
2018-07-24T10:10:35.477Z,58.34
2018-07-24T10:11:35.664Z,59.61
2018-07-24T10:12:35.887Z,59.70
2018-07-24T10:13:36.046Z,59.67
2018-07-24T10:14:36.242Z,60.97
2018-07-24T10:15:36.457Z,60.88
2018-07-24T10:16:36.648Z,59.41
2018-07-24T10:17:36.820Z,60.97
2018-07-24T10:18:37.036Z,60.10
2018-07-24T10:19:37.237Z,61.27
2018-07-24T10:20:37.415Z,58.44
2018-07-24T10:21:37.614Z,59.34
2018-07-24T10:22:37.839Z,59.44
2018-07-24T10:23:38.010Z,58.40
2018-07-24T10:24:38.187Z,58.01
2018-07-24T10:25:38.403Z,59.59
2018-07-24T10:26:38.606Z,57.67
2018-07-24T10:27:38.802Z,56.27
2018-07-24T10:28:38.999Z,57.35
2018-07-24T10:29:39.217Z,57.03
2018-07-24T10:30:39.425Z,57.81
2018-07-24T10:31:39.591Z,58.17
2018-07-24T10:32:39.793Z,58.17
2018-07-24T10:33:39.984Z,59.15
2018-07-24T10:34:40.186Z,58.69
2018-07-24T10:35:40.444Z,58.47
2018-07-24T10:36:40.518Z,59.12
2018-07-24T10:37:40.717Z,59.22
2018-07-24T10:38:40.902Z,59.80
2018-07-24T10:39:41.115Z,59.51
2018-07-24T10:40:41.301Z,59.54
2018-07-24T10:41:41.488Z,58.17
2018-07-24T10:42:41.688Z,59.64
2018-07-24T10:43:41.902Z,58.95
2018-07-24T10:44:42.076Z,58.66
2018-07-24T10:45:42.272Z,58.66
2018-07-24T10:46:42.469Z,57.91
2018-07-24T10:47:42.669Z,57.81
2018-07-24T10:48:42.868Z,57.32
2018-07-24T10:49:43.065Z,57.62
2018-07-24T10:50:43.260Z,57.32
2018-07-24T10:51:43.471Z,57.13
2018-07-24T10:52:43.685Z,59.50
2018-07-24T10:53:43.849Z,56.64
2018-07-24T10:54:44.041Z,57.36
2018-07-24T10:55:44.241Z,58.04
2018-07-24T10:56:44.439Z,57.65
2018-07-24T10:57:44.622Z,58.80
2018-07-24T10:58:44.808Z,59.51
2018-07-24T10:59:45.001Z,58.56
2018-07-24T11:00:45.201Z,56.90
2018-07-24T11:01:45.399Z,57.13
2018-07-24T11:02:45.602Z,57.42
2018-07-24T11:03:45.795Z,56.93
2018-07-24T11:04:46.001Z,57.52
2018-07-24T11:05:46.179Z,58.01
2018-07-24T11:06:46.374Z,57.45
2018-07-24T11:07:46.575Z,55.98
2018-07-24T11:08:46.758Z,55.79
2018-07-24T11:09:46.963Z,55.40
2018-07-24T11:10:47.159Z,56.40
2018-07-24T11:11:47.350Z,55.52
2018-07-24T11:12:47.548Z,54.96
2018-07-24T11:13:47.745Z,54.38
2018-07-24T11:14:47.955Z,53.78
2018-07-24T11:15:48.124Z,54.60
2018-07-24T11:16:48.335Z,54.01
2018-07-24T11:17:48.545Z,52.83
2018-07-24T11:18:48.721Z,52.34
2018-07-24T11:19:48.907Z,53.81
2018-07-24T11:20:49.096Z,53.39
2018-07-24T11:21:49.380Z,53.49
2018-07-24T11:22:49.659Z,53.59
2018-07-24T11:23:49.707Z,53.10
2018-07-24T11:24:49.903Z,53.39
2018-07-24T11:25:50.097Z,54.01
2018-07-24T11:26:50.291Z,52.64
2018-07-24T11:27:50.495Z,52.61
2018-07-24T11:28:50.706Z,53.33
2018-07-24T11:29:50.898Z,52.54
2018-07-24T11:30:51.119Z,52.64
2018-07-24T11:31:51.314Z,52.34
2018-07-24T11:32:51.553Z,52.73
2018-07-24T11:33:51.708Z,51.56
2018-07-24T11:34:51.896Z,53.06
2018-07-24T11:35:52.133Z,51.76
2018-07-24T11:36:52.278Z,50.88
2018-07-24T11:37:52.491Z,51.93
2018-07-24T11:38:52.654Z,51.83
2018-07-24T11:39:52.841Z,51.76
2018-07-24T11:40:53.038Z,51.95
2018-07-24T11:41:53.233Z,51.86
2018-07-24T11:42:53.428Z,52.73
2018-07-24T11:43:53.678Z,51.46
2018-07-24T11:44:53.818Z,51.66
2018-07-24T11:45:54.037Z,50.88
2018-07-24T11:46:54.202Z,50.88
2018-07-24T11:47:54.392Z,51.86
2018-07-24T11:48:54.578Z,51.20
2018-07-24T11:49:54.787Z,51.49
2018-07-24T11:50:54.981Z,51.03
2018-07-24T11:51:55.220Z,50.34
2018-07-24T11:52:55.401Z,50.73
2018-07-24T11:53:55.590Z,50.73
2018-07-24T11:54:55.806Z,50.04
2018-07-24T11:55:56.006Z,48.97
2018-07-24T11:56:56.200Z,49.73
2018-07-24T11:57:56.406Z,48.65
2018-07-24T11:58:56.579Z,48.92
2018-07-24T11:59:56.780Z,49.41
2018-07-24T12:00:56.977Z,49.99
2018-07-24T12:01:57.170Z,50.49
2018-07-24T12:02:57.360Z,49.60
2018-07-24T12:03:57.553Z,49.51
2018-07-24T12:04:57.753Z,50.49
2018-07-24T12:05:58.008Z,49.41
2018-07-24T12:06:58.173Z,50.49
2018-07-24T12:07:58.397Z,51.17
2018-07-24T12:08:58.556Z,50.61
2018-07-24T12:09:58.775Z,50.81
2018-07-24T12:10:58.967Z,49.53
2018-07-24T12:11:59.152Z,48.82
2018-07-24T12:12:59.371Z,50.10
2018-07-24T12:13:59.556Z,49.99
2018-07-24T12:14:59.777Z,49.70
2018-07-24T12:15:59.973Z,48.63
2018-07-24T12:17:00.162Z,49.04
2018-07-24T12:18:00.357Z,47.87
2018-07-24T12:19:00.567Z,46.98
2018-07-24T12:20:00.754Z,48.28
2018-07-24T12:21:00.943Z,48.55
2018-07-24T12:22:01.149Z,47.18
2018-07-24T12:23:01.341Z,48.53
2018-07-24T12:24:01.550Z,48.43
2018-07-24T12:25:01.775Z,48.04
2018-07-24T12:26:01.987Z,48.16
2018-07-24T12:27:02.164Z,48.36
2018-07-24T12:28:02.356Z,47.30
2018-07-24T12:29:02.545Z,46.91
2018-07-24T12:30:02.751Z,45.07
2018-07-24T12:31:02.949Z,47.03
2018-07-24T12:32:03.151Z,46.47
2018-07-24T12:33:03.337Z,44.80
2018-07-24T12:34:03.551Z,44.80
2018-07-24T12:35:03.758Z,44.38
2018-07-24T12:36:03.972Z,44.38
2018-07-24T12:37:04.126Z,44.95
2018-07-24T12:38:04.339Z,46.23
2018-07-24T12:39:04.507Z,47.01
2018-07-24T12:40:04.711Z,46.52
2018-07-24T12:41:04.902Z,46.20
2018-07-24T12:42:05.086Z,46.42
2018-07-24T12:43:05.285Z,47.60
2018-07-24T12:44:05.482Z,46.62
2018-07-24T12:45:05.663Z,46.52
2018-07-24T12:46:05.855Z,46.23
2018-07-24T12:47:06.051Z,47.20
2018-07-24T12:48:06.259Z,47.11
2018-07-24T12:49:06.445Z,46.72
2018-07-24T12:50:06.637Z,47.40
2018-07-24T12:51:06.831Z,46.91
2018-07-24T12:52:07.031Z,46.84
2018-07-24T12:53:07.228Z,47.13
2018-07-24T12:54:07.425Z,45.95
2018-07-24T12:55:07.630Z,45.25
2018-07-24T12:56:07.796Z,45.64
2018-07-24T12:57:07.980Z,46.13